KSUN/SUN METAR and TAF weather

Enter ICAO airport designator
Station Type Date Time Source
KSUN METAR 2021/01/16 00:55 UTC NOAA

KSUN 160055Z 11004KT 10SM SCT045 BKN060 OVC110 M01/M06 A3032


Station Type Date Time Source
KSUN Decoded METAR 2021/01/16 00:55 UTC NOAA

Hailey, Friedman Memorial Airport, ID, United States (KSUN) 43-30N 114-18W
Jan 15, 2021 - 07:55 PM EST / 2021.01.16 0055 UTC
Wind: from the ESE (110 degrees) at 5 MPH (4 KT):0
Visibility: 10 mile(s):0
Sky conditions: overcast
Temperature: 30 F (-1 C)
Windchill: 24 F (-4 C):1
Dew Point: 21 F (-6 C)
Relative Humidity: 68%
Pressure (altimeter): 30.32 in. Hg (1026 hPa)
ob: KSUN 160055Z 11004KT 10SM SCT045 BKN060 OVC110 M01/M06 A3032
cycle: 1

Station Type Date Time Source
KSUN TAF 2021/01/15 18:22 UTC NOAA

TAF KSUN 151720Z 1518/1624 31007KT P6SM OVC150
FM151900 13006KT P6SM OVC210
FM160300 30006KT P6SM VCSH SCT010 BKN025 OVC035
FM160700 31008KT P6SM SCT025 BKN035 OVC050
FM161500 32010KT P6SM SKC
FM161900 13008KT P6SM FEW200

Example: see airport list